createdAt,value
2023-01-22T00:01:15.996Z,0.45
2023-01-22T00:03:46.499Z,0.50
2023-01-22T00:06:14.079Z,0.49
2023-01-22T00:08:41.626Z,0.51
2023-01-22T00:11:10.042Z,0.50
2023-01-22T00:13:42.348Z,0.57
2023-01-22T00:16:12.049Z,0.61
2023-01-22T00:18:39.042Z,0.58
2023-01-22T00:21:06.425Z,0.58
2023-01-22T00:23:33.228Z,0.57
2023-01-22T00:26:01.319Z,0.61
2023-01-22T00:28:28.819Z,0.61
2023-01-22T00:31:00.261Z,0.60
2023-01-22T00:33:27.657Z,0.62
2023-01-22T00:35:54.634Z,0.64
2023-01-22T00:38:21.601Z,0.63
2023-01-22T00:40:48.254Z,0.70
2023-01-22T00:43:14.925Z,0.67
2023-01-22T00:45:41.944Z,0.67
2023-01-22T00:48:08.659Z,0.67
2023-01-22T00:50:35.419Z,0.70
2023-01-22T00:53:03.980Z,0.71
2023-01-22T00:55:30.994Z,0.72
2023-01-22T00:57:58.400Z,0.79
2023-01-22T01:00:25.143Z,0.85
2023-01-22T01:03:11.119Z,0.75
2023-01-22T01:05:37.748Z,0.76
2023-01-22T01:08:04.811Z,0.73
2023-01-22T01:10:31.438Z,0.74
2023-01-22T01:12:58.673Z,0.75
2023-01-22T01:15:25.356Z,0.76
2023-01-22T01:17:52.142Z,0.74
2023-01-22T01:20:19.032Z,0.76
2023-01-22T01:22:46.822Z,0.76
2023-01-22T01:25:13.401Z,0.83
2023-01-22T01:27:40.525Z,0.80
2023-01-22T01:30:08.207Z,0.88
2023-01-22T01:32:34.930Z,0.76
2023-01-22T01:35:01.688Z,0.71
2023-01-22T01:37:28.950Z,0.69
2023-01-22T01:39:56.112Z,0.73
2023-01-22T01:42:30.060Z,0.72
2023-01-22T01:45:15.602Z,0.76
2023-01-22T01:47:42.235Z,0.76
2023-01-22T01:50:09.119Z,0.78
2023-01-22T01:52:36.208Z,0.77
2023-01-22T01:55:04.147Z,0.77
2023-01-22T01:57:32.782Z,0.82
2023-01-22T02:00:00.848Z,0.85
2023-01-22T02:02:27.860Z,0.82
2023-01-22T02:04:54.603Z,0.87
2023-01-22T02:07:21.795Z,0.83
2023-01-22T02:09:49.647Z,0.83
2023-01-22T02:12:17.322Z,0.85
2023-01-22T02:14:49.984Z,0.88
2023-01-22T02:17:21.539Z,0.84
2023-01-22T02:19:49.599Z,0.86
2023-01-22T02:22:20.130Z,0.90
2023-01-22T02:24:47.827Z,0.85
2023-01-22T02:27:14.688Z,0.83
2023-01-22T02:29:41.538Z,0.89
2023-01-22T02:32:08.677Z,0.86
2023-01-22T02:34:36.167Z,0.78
2023-01-22T02:37:03.500Z,0.79
2023-01-22T02:39:31.709Z,0.82
2023-01-22T02:41:58.981Z,0.86
2023-01-22T02:44:26.265Z,0.87
2023-01-22T02:46:52.791Z,0.88
2023-01-22T02:49:20.060Z,0.84
2023-01-22T02:51:46.917Z,0.83
2023-01-22T02:54:13.738Z,0.86
2023-01-22T02:56:40.740Z,0.84
2023-01-22T02:59:07.707Z,0.86
2023-01-22T03:01:34.827Z,0.87
2023-01-22T03:04:13.209Z,0.94
2023-01-22T03:06:41.279Z,0.86
2023-01-22T03:09:09.156Z,0.86
2023-01-22T03:11:37.323Z,0.87
2023-01-22T03:14:23.070Z,0.87
2023-01-22T03:17:09.222Z,0.85
2023-01-22T03:19:54.554Z,0.85
2023-01-22T03:22:21.932Z,0.89
2023-01-22T03:24:50.670Z,0.89
2023-01-22T03:27:18.148Z,0.86
2023-01-22T03:29:44.814Z,0.88
2023-01-22T03:32:11.949Z,0.91
2023-01-22T03:34:38.925Z,0.84
2023-01-22T03:37:06.767Z,0.85
2023-01-22T03:39:33.965Z,0.90
2023-01-22T03:42:00.699Z,0.87
2023-01-22T03:44:27.893Z,0.82
2023-01-22T03:46:54.963Z,0.80
2023-01-22T03:49:22.216Z,0.79
2023-01-22T03:51:49.444Z,0.75
2023-01-22T03:54:16.564Z,0.74
2023-01-22T03:56:43.750Z,0.74
2023-01-22T03:59:10.715Z,0.72
2023-01-22T04:01:38.574Z,0.73
2023-01-22T04:04:05.307Z,0.70
2023-01-22T04:06:32.087Z,0.70
2023-01-22T04:08:59.022Z,0.71
2023-01-22T04:11:25.989Z,0.70
2023-01-22T04:13:54.428Z,0.64
2023-01-22T04:16:22.205Z,0.62
2023-01-22T04:18:49.372Z,0.66
2023-01-22T04:21:16.596Z,0.60
2023-01-22T04:23:43.683Z,0.58
2023-01-22T04:26:11.455Z,0.61
2023-01-22T04:28:38.760Z,0.62
2023-01-22T04:31:08.625Z,0.59
2023-01-22T04:33:36.183Z,0.62
2023-01-22T04:36:02.948Z,0.62
2023-01-22T04:38:29.563Z,0.59
2023-01-22T04:40:56.723Z,0.61
2023-01-22T04:43:23.540Z,0.64
2023-01-22T04:45:51.478Z,0.67
2023-01-22T04:48:18.406Z,0.69
2023-01-22T04:50:46.580Z,0.69
2023-01-22T04:53:13.302Z,0.67
2023-01-22T04:55:42.060Z,0.71
2023-01-22T04:58:09.421Z,0.74
2023-01-22T05:00:37.048Z,0.70
2023-01-22T05:03:04.635Z,0.69
2023-01-22T05:05:32.146Z,0.71
2023-01-22T05:07:59.672Z,0.73
2023-01-22T05:10:26.807Z,0.71
2023-01-22T05:12:53.805Z,0.64
2023-01-22T05:15:24.764Z,0.63
2023-01-22T05:17:53.217Z,0.57
2023-01-22T05:20:21.225Z,0.61
2023-01-22T05:22:49.109Z,0.61
2023-01-22T05:25:15.883Z,0.67
2023-01-22T05:27:43.168Z,0.64
2023-01-22T05:30:11.498Z,0.54
2023-01-22T05:32:38.389Z,0.61
2023-01-22T05:35:05.572Z,0.56
2023-01-22T05:37:33.215Z,0.56
2023-01-22T05:40:00.096Z,0.56
2023-01-22T05:42:26.824Z,0.59
2023-01-22T05:44:53.735Z,0.58
2023-01-22T05:47:21.067Z,0.52
2023-01-22T05:49:48.485Z,0.60
2023-01-22T05:52:16.296Z,0.66
2023-01-22T05:54:43.068Z,0.64
2023-01-22T05:57:10.001Z,0.65
2023-01-22T05:59:37.275Z,0.68
2023-01-22T06:02:04.085Z,0.68
2023-01-22T06:04:31.459Z,0.71
2023-01-22T06:06:58.426Z,0.70
2023-01-22T06:09:25.609Z,0.69
2023-01-22T06:11:52.381Z,0.67
2023-01-22T06:14:19.805Z,0.69
2023-01-22T06:16:46.511Z,0.69
2023-01-22T06:19:13.657Z,0.68
2023-01-22T06:21:41.015Z,0.67
2023-01-22T06:24:08.384Z,0.68
2023-01-22T06:26:35.539Z,0.69
2023-01-22T06:29:02.444Z,0.72
2023-01-22T06:31:29.780Z,0.73
2023-01-22T06:33:56.960Z,0.71
2023-01-22T06:36:23.787Z,0.72
2023-01-22T06:38:50.378Z,0.77
2023-01-22T06:41:17.108Z,0.75
2023-01-22T06:43:43.940Z,0.79
2023-01-22T06:46:10.989Z,0.73
2023-01-22T06:48:38.804Z,0.74
2023-01-22T06:51:05.708Z,0.72
2023-01-22T06:53:32.600Z,0.70
2023-01-22T06:56:00.135Z,0.74
2023-01-22T06:58:27.889Z,0.76
2023-01-22T07:00:54.951Z,0.84
2023-01-22T07:03:22.132Z,0.77
2023-01-22T07:05:55.416Z,0.77
2023-01-22T07:08:22.253Z,0.78
2023-01-22T07:10:49.519Z,0.75
2023-01-22T07:13:16.578Z,0.78
2023-01-22T07:15:43.143Z,0.77
2023-01-22T07:18:10.616Z,0.75
2023-01-22T07:20:37.900Z,0.79
2023-01-22T07:23:04.799Z,0.77
2023-01-22T07:25:31.638Z,0.71
2023-01-22T07:28:00.125Z,0.76
2023-01-22T07:30:27.966Z,0.77
2023-01-22T07:32:57.608Z,0.76
2023-01-22T07:35:24.343Z,0.74
2023-01-22T07:37:51.840Z,0.71
2023-01-22T07:40:20.185Z,0.72
2023-01-22T07:42:47.599Z,0.75
2023-01-22T07:45:14.511Z,0.78
2023-01-22T07:47:42.012Z,0.81
2023-01-22T07:50:09.201Z,0.78
2023-01-22T07:52:36.589Z,0.77
2023-01-22T07:55:03.491Z,0.91
2023-01-22T07:57:30.534Z,0.86
2023-01-22T07:59:57.549Z,0.81
2023-01-22T08:02:24.400Z,0.79
2023-01-22T08:04:51.111Z,0.82
2023-01-22T08:07:19.301Z,0.81
2023-01-22T08:09:46.518Z,0.83
2023-01-22T08:12:13.523Z,0.84
2023-01-22T08:14:40.573Z,0.83
2023-01-22T08:17:07.768Z,0.89
2023-01-22T08:19:34.632Z,0.87
2023-01-22T08:22:01.321Z,0.94
2023-01-22T08:24:28.200Z,0.92
2023-01-22T08:26:56.177Z,0.94
2023-01-22T08:29:22.785Z,0.93
2023-01-22T08:31:50.817Z,0.99
2023-01-22T08:34:17.748Z,0.97
2023-01-22T08:36:44.330Z,1.00
2023-01-22T08:39:11.313Z,1.01
2023-01-22T08:41:37.980Z,0.96
2023-01-22T08:44:05.151Z,0.97
2023-01-22T08:46:31.874Z,1.02
2023-01-22T08:48:58.644Z,1.05
2023-01-22T08:51:26.647Z,1.08
2023-01-22T08:53:53.692Z,1.06
2023-01-22T08:56:20.444Z,1.08
2023-01-22T08:58:51.114Z,1.07
2023-01-22T09:01:19.553Z,1.07
2023-01-22T09:03:46.754Z,1.14
2023-01-22T09:06:13.513Z,1.05
2023-01-22T09:08:40.316Z,1.04
2023-01-22T09:11:07.621Z,1.12
2023-01-22T09:13:34.609Z,1.02
2023-01-22T09:16:01.341Z,1.09
2023-01-22T09:18:28.725Z,1.01
2023-01-22T09:20:55.502Z,1.07
2023-01-22T09:23:22.516Z,1.09
2023-01-22T09:25:49.268Z,1.12
2023-01-22T09:28:16.611Z,1.04
2023-01-22T09:30:44.253Z,1.10
2023-01-22T09:33:11.728Z,1.12
2023-01-22T09:35:38.489Z,1.14
2023-01-22T09:38:05.850Z,1.15
2023-01-22T09:40:40.181Z,1.13
2023-01-22T09:43:12.865Z,1.14
2023-01-22T09:45:40.817Z,1.03
2023-01-22T09:48:12.651Z,1.13
2023-01-22T09:50:41.300Z,1.13
2023-01-22T09:53:12.356Z,1.21
2023-01-22T09:55:43.941Z,1.26
2023-01-22T09:58:14.362Z,1.28
2023-01-22T10:00:44.418Z,1.32
2023-01-22T10:03:31.691Z,1.30
2023-01-22T10:06:00.549Z,1.25
2023-01-22T10:08:47.478Z,1.36
2023-01-22T10:11:14.669Z,1.38
2023-01-22T10:13:41.289Z,1.37
2023-01-22T10:16:08.457Z,1.37
2023-01-22T10:18:35.160Z,1.36
2023-01-22T10:21:04.018Z,1.41
2023-01-22T10:23:32.369Z,1.46
2023-01-22T10:26:04.612Z,1.49
2023-01-22T10:28:31.576Z,1.57
2023-01-22T10:30:59.578Z,1.51
2023-01-22T10:33:27.950Z,1.48
2023-01-22T10:35:56.814Z,1.50
2023-01-22T10:38:25.632Z,1.55
2023-01-22T10:40:53.764Z,1.56
2023-01-22T10:43:21.732Z,1.63
2023-01-22T10:45:55.809Z,1.68
2023-01-22T10:48:22.858Z,1.69
2023-01-22T10:51:00.825Z,1.70
2023-01-22T10:53:33.412Z,1.76
2023-01-22T10:56:01.441Z,1.75
2023-01-22T10:58:33.606Z,1.79
2023-01-22T11:01:02.143Z,1.83
2023-01-22T11:03:30.948Z,1.89
2023-01-22T11:06:04.358Z,2.07
2023-01-22T11:08:38.417Z,2.12
2023-01-22T11:11:08.005Z,2.07
2023-01-22T11:13:54.352Z,2.05
2023-01-22T11:16:23.141Z,2.12
2023-01-22T11:18:55.406Z,2.17
2023-01-22T11:21:27.742Z,2.17
2023-01-22T11:23:57.612Z,2.22
2023-01-22T11:26:36.234Z,2.19
2023-01-22T11:29:11.342Z,2.18
2023-01-22T11:31:56.750Z,2.08
2023-01-22T11:34:29.786Z,2.03
2023-01-22T11:37:05.848Z,2.00
2023-01-22T11:39:51.035Z,2.05
2023-01-22T11:42:24.107Z,2.14
2023-01-22T11:44:50.970Z,2.13
2023-01-22T11:47:45.301Z,2.10
2023-01-22T11:50:21.456Z,2.04
2023-01-22T11:52:53.125Z,2.03
2023-01-22T11:55:39.868Z,2.09
2023-01-22T11:58:15.835Z,2.09
2023-01-22T12:01:01.941Z,2.11
2023-01-22T12:03:29.488Z,2.04
2023-01-22T12:05:59.917Z,1.98
2023-01-22T12:08:45.132Z,2.03
2023-01-22T12:11:16.640Z,2.09
2023-01-22T12:13:43.570Z,2.08
2023-01-22T12:16:29.295Z,2.09
2023-01-22T12:19:06.231Z,2.06
2023-01-22T12:21:51.783Z,2.09
2023-01-22T12:24:25.863Z,2.06
2023-01-22T12:27:12.549Z,2.03
2023-01-22T12:29:41.694Z,2.03
2023-01-22T12:32:12.096Z,2.02
2023-01-22T12:34:39.655Z,2.04
2023-01-22T12:37:07.720Z,2.05
2023-01-22T12:39:37.253Z,2.07
2023-01-22T12:42:19.855Z,2.12
2023-01-22T12:45:02.583Z,2.16
2023-01-22T12:47:37.269Z,2.19
2023-01-22T12:50:04.971Z,2.24
2023-01-22T12:52:36.317Z,2.28
2023-01-22T12:55:05.210Z,2.21
2023-01-22T12:57:39.593Z,2.21
2023-01-22T13:00:14.585Z,2.19
2023-01-22T13:02:42.073Z,2.23
2023-01-22T13:05:11.022Z,2.23
2023-01-22T13:07:41.022Z,2.24
2023-01-22T13:10:20.384Z,2.23
2023-01-22T13:12:53.357Z,2.25
2023-01-22T13:15:25.689Z,2.27
2023-01-22T13:18:12.924Z,2.32
2023-01-22T13:20:55.147Z,2.29
2023-01-22T13:23:22.635Z,2.28
2023-01-22T13:25:53.172Z,2.25
2023-01-22T13:28:20.924Z,2.25
2023-01-22T13:30:57.172Z,2.19
2023-01-22T13:33:24.334Z,2.25
2023-01-22T13:35:51.658Z,2.26
2023-01-22T13:38:21.196Z,2.26
2023-01-22T13:40:51.634Z,2.26
2023-01-22T13:43:20.422Z,2.33
2023-01-22T13:45:47.047Z,2.39
2023-01-22T13:48:18.809Z,2.36
2023-01-22T13:50:47.750Z,2.37
2023-01-22T13:53:22.119Z,2.35
2023-01-22T13:55:49.789Z,2.37
2023-01-22T13:58:38.828Z,2.37
2023-01-22T14:01:10.575Z,2.36
2023-01-22T14:03:38.235Z,2.38
2023-01-22T14:06:07.901Z,2.33
2023-01-22T14:08:51.405Z,2.31
2023-01-22T14:11:18.771Z,2.36
2023-01-22T14:13:47.074Z,2.33
2023-01-22T14:16:14.809Z,2.37
2023-01-22T14:18:47.679Z,2.37
2023-01-22T14:21:14.935Z,2.33
2023-01-22T14:23:42.691Z,2.30
2023-01-22T14:26:10.553Z,2.31
2023-01-22T14:28:37.670Z,2.33
2023-01-22T14:31:05.179Z,2.32
2023-01-22T14:33:33.941Z,2.36
2023-01-22T14:36:01.183Z,2.40
2023-01-22T14:38:28.510Z,2.42
2023-01-22T14:40:55.131Z,2.42
2023-01-22T14:43:21.836Z,2.42
2023-01-22T14:45:49.337Z,2.36
2023-01-22T14:48:16.997Z,2.34
2023-01-22T14:50:44.007Z,2.36
2023-01-22T14:53:12.134Z,2.31
2023-01-22T14:55:39.847Z,2.31
2023-01-22T14:58:06.795Z,2.27
2023-01-22T15:00:33.730Z,2.27
2023-01-22T15:03:00.877Z,2.25
2023-01-22T15:05:28.195Z,2.24
2023-01-22T15:07:55.559Z,2.18
2023-01-22T15:10:22.970Z,2.12
2023-01-22T15:12:51.931Z,2.08
2023-01-22T15:15:26.200Z,2.09
2023-01-22T15:17:54.019Z,2.11
2023-01-22T15:20:21.404Z,2.12
2023-01-22T15:22:49.847Z,2.11
2023-01-22T15:25:17.108Z,2.05
2023-01-22T15:27:44.622Z,2.05
2023-01-22T15:30:12.776Z,2.03
2023-01-22T15:32:40.048Z,2.10
2023-01-22T15:35:07.177Z,2.04
2023-01-22T15:37:34.308Z,2.04
2023-01-22T15:40:01.197Z,2.03
2023-01-22T15:42:27.753Z,2.04
2023-01-22T15:44:54.606Z,2.07
2023-01-22T15:47:21.575Z,2.07
2023-01-22T15:49:48.639Z,2.05
2023-01-22T15:52:15.259Z,2.08
2023-01-22T15:54:42.303Z,2.11
2023-01-22T15:57:09.406Z,2.05
2023-01-22T15:59:38.933Z,2.01
2023-01-22T16:02:05.799Z,1.96
2023-01-22T16:04:32.685Z,2.01
2023-01-22T16:06:59.762Z,1.96
2023-01-22T16:09:26.560Z,1.97
2023-01-22T16:11:53.411Z,1.98
2023-01-22T16:14:20.167Z,1.95
2023-01-22T16:16:47.775Z,1.99
2023-01-22T16:19:14.777Z,2.02
2023-01-22T16:21:41.665Z,2.08
2023-01-22T16:24:09.879Z,2.02
2023-01-22T16:26:36.967Z,2.03
2023-01-22T16:29:04.973Z,2.04
2023-01-22T16:31:33.018Z,2.04
2023-01-22T16:34:00.910Z,2.03
2023-01-22T16:36:29.635Z,2.03
2023-01-22T16:38:56.719Z,2.05
2023-01-22T16:41:30.687Z,2.09
2023-01-22T16:44:02.067Z,2.04
2023-01-22T16:46:30.299Z,2.00
2023-01-22T16:49:02.558Z,1.99
2023-01-22T16:51:33.958Z,2.01
2023-01-22T16:54:01.069Z,2.02
2023-01-22T16:56:28.186Z,2.07
2023-01-22T16:58:55.202Z,2.07
2023-01-22T17:01:22.671Z,2.07
2023-01-22T17:03:49.893Z,2.04
2023-01-22T17:06:29.221Z,2.00
2023-01-22T17:08:56.293Z,2.02
2023-01-22T17:11:23.408Z,2.04
2023-01-22T17:13:50.528Z,2.06
2023-01-22T17:16:18.288Z,2.05
2023-01-22T17:18:45.414Z,2.07
2023-01-22T17:21:13.839Z,2.10
2023-01-22T17:23:41.462Z,2.11
2023-01-22T17:26:11.929Z,2.12
2023-01-22T17:28:39.551Z,2.10
2023-01-22T17:31:07.765Z,2.12
2023-01-22T17:33:35.366Z,2.12
2023-01-22T17:36:03.803Z,2.10
2023-01-22T17:38:32.807Z,2.06
2023-01-22T17:41:15.244Z,2.09
2023-01-22T17:43:43.633Z,2.05
2023-01-22T17:46:12.419Z,2.11
2023-01-22T17:48:39.832Z,2.09
2023-01-22T17:51:08.369Z,2.06
2023-01-22T17:53:36.228Z,2.04
2023-01-22T17:56:11.027Z,2.05
2023-01-22T17:58:40.701Z,2.07
2023-01-22T18:01:08.983Z,2.06
2023-01-22T18:03:36.072Z,2.07
2023-01-22T18:06:02.815Z,2.06
2023-01-22T18:08:30.877Z,2.02
2023-01-22T18:10:58.088Z,2.05
2023-01-22T18:13:25.879Z,2.09
2023-01-22T18:15:54.683Z,2.12
2023-01-22T18:18:21.671Z,2.15
2023-01-22T18:20:49.079Z,2.16
2023-01-22T18:23:16.421Z,2.13
2023-01-22T18:25:46.832Z,2.16
2023-01-22T18:28:15.016Z,2.22
2023-01-22T18:30:41.943Z,2.19
2023-01-22T18:33:13.728Z,2.17
2023-01-22T18:35:47.989Z,2.21
2023-01-22T18:38:15.071Z,2.18
2023-01-22T18:40:42.515Z,2.19
2023-01-22T18:43:10.078Z,2.17
2023-01-22T18:45:37.664Z,2.16
2023-01-22T18:48:04.804Z,2.21
2023-01-22T18:50:31.757Z,2.22
2023-01-22T18:53:02.006Z,2.21
2023-01-22T18:55:33.189Z,2.22
2023-01-22T18:58:06.440Z,2.20
2023-01-22T19:00:34.127Z,2.18
2023-01-22T19:03:01.268Z,2.22
2023-01-22T19:05:28.570Z,2.21
2023-01-22T19:07:55.343Z,2.22
2023-01-22T19:10:23.218Z,2.21
2023-01-22T19:12:50.193Z,2.19
2023-01-22T19:15:17.857Z,2.22
2023-01-22T19:17:44.782Z,2.22
2023-01-22T19:20:14.978Z,2.20
2023-01-22T19:22:42.999Z,2.17
2023-01-22T19:25:10.002Z,2.23
2023-01-22T19:27:37.110Z,2.26
2023-01-22T19:30:05.719Z,2.26
2023-01-22T19:32:35.037Z,2.25
2023-01-22T19:35:02.011Z,2.28
2023-01-22T19:37:29.640Z,2.27
2023-01-22T19:39:56.771Z,2.27
2023-01-22T19:42:24.417Z,2.27
2023-01-22T19:44:52.121Z,2.30
2023-01-22T19:47:19.839Z,2.29
2023-01-22T19:49:46.878Z,2.34
2023-01-22T19:52:13.530Z,2.36
2023-01-22T19:54:44.063Z,2.35
2023-01-22T19:57:11.985Z,2.37
2023-01-22T19:59:39.096Z,2.36
2023-01-22T20:02:06.310Z,2.34
2023-01-22T20:04:34.350Z,2.37
2023-01-22T20:07:05.718Z,2.35
2023-01-22T20:09:33.923Z,2.36
2023-01-22T20:12:01.285Z,2.35
2023-01-22T20:14:31.056Z,2.36
2023-01-22T20:16:58.670Z,2.38
2023-01-22T20:19:25.610Z,2.39
2023-01-22T20:21:53.586Z,2.43
2023-01-22T20:24:20.078Z,2.43
2023-01-22T20:26:47.242Z,2.44
2023-01-22T20:29:13.827Z,2.45
2023-01-22T20:31:40.956Z,2.50
2023-01-22T20:34:07.667Z,2.49
2023-01-22T20:36:35.031Z,2.48
2023-01-22T20:39:02.288Z,2.48
2023-01-22T20:41:30.779Z,2.46
2023-01-22T20:43:57.945Z,2.42
2023-01-22T20:46:25.962Z,2.43
2023-01-22T20:48:54.040Z,2.43
2023-01-22T20:51:22.106Z,2.41
2023-01-22T20:53:50.685Z,2.45
2023-01-22T20:56:20.967Z,2.46
2023-01-22T20:58:49.246Z,2.45
2023-01-22T21:01:19.022Z,2.48
2023-01-22T21:03:47.075Z,2.43
2023-01-22T21:06:17.268Z,2.37
2023-01-22T21:08:47.660Z,2.37
2023-01-22T21:11:17.825Z,2.37
2023-01-22T21:13:44.700Z,2.36
2023-01-22T21:16:12.813Z,2.34
2023-01-22T21:18:41.483Z,2.34
2023-01-22T21:21:09.048Z,2.35
2023-01-22T21:23:36.919Z,2.35
2023-01-22T21:26:07.901Z,2.35
2023-01-22T21:28:35.768Z,2.38
2023-01-22T21:31:13.374Z,2.37
2023-01-22T21:33:40.664Z,2.37
2023-01-22T21:36:08.813Z,2.38
2023-01-22T21:38:37.284Z,2.36
2023-01-22T21:41:04.203Z,2.40
2023-01-22T21:43:49.678Z,2.40
2023-01-22T21:46:24.962Z,2.42
2023-01-22T21:48:57.169Z,2.44
2023-01-22T21:51:28.476Z,2.44
2023-01-22T21:53:55.881Z,2.47
2023-01-22T21:56:23.210Z,2.45
2023-01-22T21:58:50.291Z,2.47
2023-01-22T22:01:19.220Z,2.49
2023-01-22T22:03:46.408Z,2.50
2023-01-22T22:06:13.491Z,2.50
2023-01-22T22:08:43.199Z,2.49
2023-01-22T22:11:12.276Z,2.54
2023-01-22T22:13:39.748Z,2.54
2023-01-22T22:16:07.471Z,2.51
2023-01-22T22:18:34.923Z,2.54
2023-01-22T22:21:03.632Z,2.53
2023-01-22T22:23:31.254Z,2.55
2023-01-22T22:25:58.418Z,2.54
2023-01-22T22:28:25.413Z,2.55
2023-01-22T22:30:52.361Z,2.59
2023-01-22T22:33:19.852Z,2.55
2023-01-22T22:35:46.971Z,2.59
2023-01-22T22:38:14.865Z,2.57
2023-01-22T22:40:42.160Z,2.58
2023-01-22T22:43:09.220Z,2.56
2023-01-22T22:45:37.652Z,2.56
2023-01-22T22:48:05.389Z,2.60
2023-01-22T22:50:33.026Z,2.61
2023-01-22T22:53:00.362Z,2.63
2023-01-22T22:55:28.658Z,2.66
2023-01-22T22:57:55.448Z,2.64
2023-01-22T23:00:22.919Z,2.66
2023-01-22T23:02:50.678Z,2.65
2023-01-22T23:05:17.635Z,2.66
2023-01-22T23:07:44.830Z,2.68
2023-01-22T23:10:28.607Z,2.67
2023-01-22T23:12:56.647Z,2.71
2023-01-22T23:15:24.611Z,2.72
2023-01-22T23:17:51.845Z,2.71
2023-01-22T23:20:20.247Z,2.72
2023-01-22T23:22:47.471Z,2.71
2023-01-22T23:25:14.285Z,2.72
2023-01-22T23:27:41.100Z,2.70
2023-01-22T23:30:08.266Z,2.69
2023-01-22T23:32:35.661Z,2.70
2023-01-22T23:35:03.091Z,2.69
2023-01-22T23:37:29.703Z,2.68
2023-01-22T23:39:56.717Z,2.69
2023-01-22T23:42:24.505Z,2.68
2023-01-22T23:44:51.385Z,2.67
2023-01-22T23:47:19.817Z,2.67
2023-01-22T23:49:46.743Z,2.68
2023-01-22T23:52:13.495Z,2.72
2023-01-22T23:54:41.481Z,2.72
2023-01-22T23:57:08.913Z,2.72
2023-01-22T23:59:35.883Z,2.71
